Bookmark and Share
Track history (hours):
 

Bow Victor

Last reported at 2014-Apr-15 12:34 UTC. Time now 2014-Apr-17 18:32 UTC.
Position N 34°30' W 076°36'.

Length 183 m; draft 7.4 m.

Type: Tanker. MMSI: 257873000.

NotesDate/timePositionNaut miles runAvg speedWind from/ knotsBaromVisibWave heightAir tempDewpointWater temp
2014-Apr-15 12:34N 34°30' W 076°36'8 8.2
2014-Apr-15 11:34N 34°38' W 076°40'5 4.9
2014-Apr-15 10:32N 34°43' W 076°41'0 0.0
2014-Apr-15 09:32N 34°43' W 076°41'0 0.0
2014-Apr-15 08:32N 34°43' W 076°41'0 0.0
2014-Apr-15 07:32N 34°43' W 076°41'0 0.0
2014-Apr-15 05:32N 34°43' W 076°41'0 0.0
2014-Apr-15 03:32N 34°43' W 076°41'0 0.0
2014-Apr-15 02:32N 34°43' W 076°41'0 0.0
2014-Apr-15 01:32N 34°43' W 076°41'0 0.0
2014-Apr-15 00:32N 34°43' W 076°41'0 0.0
2014-Apr-14 23:32N 34°43' W 076°41'0 0.0
2014-Apr-14 21:32N 34°43' W 076°41'0 0.0
2014-Apr-14 20:32N 34°43' W 076°41'0 0.0
2014-Apr-14 19:32N 34°43' W 076°41'0 0.0
2014-Apr-14 18:32N 34°43' W 076°41'0 0.0
2014-Apr-14 17:31N 34°43' W 076°41'0 0.0
2014-Apr-14 16:31N 34°43' W 076°41'0 0.0
2014-Apr-14 15:31N 34°43' W 076°41'0 0.0
2014-Apr-14 14:31N 34°43' W 076°41'0 0.0
2014-Apr-14 13:31N 34°43' W 076°41'0 0.0
2014-Apr-14 11:31N 34°43' W 076°41'0 0.0
2014-Apr-14 10:31N 34°43' W 076°41'0 0.0
2014-Apr-14 09:31N 34°43' W 076°41'0 0.0
2014-Apr-14 08:31N 34°43' W 076°41'0 0.0
2014-Apr-14 07:31N 34°43' W 076°41'0 0.0
2014-Apr-14 06:31N 34°43' W 076°41'0 0.0
2014-Apr-14 05:31N 34°43' W 076°41'0 0.0
2014-Apr-13 22:31N 34°43' W 076°41'0 0.0
2014-Apr-13 21:31N 34°43' W 076°41'0 0.0
2014-Apr-13 20:28N 34°43' W 076°41'0 0.0
2014-Apr-13 19:31N 34°43' W 076°41'0 0.0
2014-Apr-13 18:31N 34°43' W 076°41'0 0.0
2014-Apr-13 17:31N 34°43' W 076°41'0 0.0
2014-Apr-13 16:31N 34°43' W 076°41'0 0.0
2014-Apr-13 15:31N 34°43' W 076°41'1 1.3
2014-Apr-13 14:33N 34°42' W 076°40'7 6.7
2014-Apr-13 13:33N 34°35' W 076°41'9 9.0
2014-Apr-13 12:33N 34°27' W 076°38'1613.2
2014-Apr-13 11:23N 34°15' W 076°25'  
2014-Apr-09 13:10N 40°25' W 073°46'6 8.6
2014-Apr-09 12:27N 40°28' W 073°53'1112.1
2014-Apr-09 11:33N 40°36' W 074°03'2 1.9
2014-Apr-09 10:32N 40°38' W 074°04'0 0.0
2014-Apr-09 09:32N 40°38' W 074°04'0 0.0
2014-Apr-09 08:32N 40°38' W 074°04'0 0.0
2014-Apr-09 07:32N 40°38' W 074°04'0 0.0
2014-Apr-09 06:32N 40°38' W 074°04'0 0.1
2014-Apr-09 05:32N 40°38' W 074°04'0 0.0
2014-Apr-09 04:32N 40°38' W 074°04'0 0.1
2014-Apr-09 03:33N 40°38' W 074°04'4 4.1
2014-Apr-09 02:33N 40°40' W 074°08'2 0.0
2014-Apr-07 16:21N 40°42' W 074°08'1 1.4
2014-Apr-07 15:33N 40°41' W 074°08'5 5.0
2014-Apr-07 14:33N 40°37' W 074°03'8 8.0
2014-Apr-07 13:33N 40°30' W 073°58'9 9.4
2014-Apr-07 12:33N 40°26' W 073°47'3 3.1
2014-Apr-07 11:34N 40°24' W 073°44'5 5.3
2014-Apr-07 10:34N 40°21' W 073°38'5 5.0
2014-Apr-07 09:33N 40°19' W 073°32'6 5.8
2014-Apr-07 08:34N 40°15' W 073°26'7 7.5
2014-Apr-07 07:34N 40°11' W 073°18'10 9.8
2014-Apr-07 06:34N 40°06' W 073°07'1313.1
2014-Apr-07 05:33N 39°57' W 072°54'1313.3
2014-Apr-07 04:33N 39°47' W 072°43'1413.7
2014-Apr-07 03:33N 39°37' W 072°32'1313.3
2014-Apr-07 02:33N 39°27' W 072°20'1313.1
2014-Apr-07 01:33N 39°17' W 072°09'1313.2
2014-Apr-07 00:33N 39°07' W 071°58'1311.4
2014-Apr-06 23:22N 38°56' W 071°47'1012.7
2014-Apr-06 22:33N 38°48' W 071°38'  

Dump ship's entire track history

sailing weather and tide predictions

Bow Victor — LAHC2 — position and weather